首页
METAR-TAF:

METAR-TAF

机场 :

錫永機場

锡永, 瑞士

纬度: 46-13N, 经度: 007-20E, 海拔: 482米

当前天气观测

该预报发布于39分钟前的14:20 UTC
风速1节,风向多变
温度 16°C
湿度 42%
气压 1026 hPa
能见度10公里或以上
散云层高于8000英尺

METAR: LSGS 231420Z AUTO VRB01KT 9999 SCT080 16/03 Q1026

时间: 15:59 (14:59 UTC)

预报

该预报发布于34分钟前的14:25 UTC
预报有效从23日的 15点(UTC)到 23日的 24点(UTC)
风速3节,风向多变
能见度10公里或以上
散云层高于8000英尺

TAF: LSGS 231425Z 2315/2324 VRB03KT 9999 SCT080

超过4000个机场的气象观测和天气预报(METAR&TAF报告)。

可查询的气象台以黄色和红色小点在地图上表示。

将鼠标移到小点上方,可查看气象台名称。

然后点击查看天气观测和预报。

如需切换地图:点击带黑十字的绿色按钮放大地图;点击带横线的绿色按钮缩小地图;或者点击绿色箭头查看邻近地区的地图。


METAR-TAF: